Time;durP1;ratioP1;P1;durP2;ratioP2;P2;SDS_P1;SDS_P2;PMS_P1;PMS_P2;Temp;Humidity;BMP_temperature;BMP_pressure;BME280_temperature;BME280_humidity;BME280_pressure;Samples;Min_cycle;Max_cycle;Signal;HPM_P1;HPM_P2
2022/09/18 00:01:21;;;;;;;7.35;1.10;;;;;;;16.87;100.00;91968.91;5087710;28;20059;-69
2022/09/18 00:03:50;;;;;;;2.50;1.30;;;;;;;16.83;100.00;91973.09;5092199;28;20390;-70
2022/09/18 00:06:19;;;;;;;2.70;1.58;;;;;;;16.83;100.00;91983.47;5091992;28;20048;-70
2022/09/18 00:08:49;;;;;;;1.95;1.10;;;;;;;16.83;100.00;91991.25;5091526;28;20093;-70
2022/09/18 00:11:16;;;;;;;3.17;1.15;;;;;;;16.83;100.00;91978.28;5091875;28;20431;-70
2022/09/18 00:13:43;;;;;;;6.43;1.45;;;;;;;16.76;100.00;91959.69;5091699;28;20044;-69
2022/09/18 00:16:12;;;;;;;4.45;1.40;;;;;;;16.83;100.00;91983.47;5092776;28;20450;-70
2022/09/18 00:18:39;;;;;;;1.80;1.00;;;;;;;16.80;100.00;91973.66;5091296;28;20046;-69
2022/09/18 00:21:09;;;;;;;5.28;1.50;;;;;;;16.74;100.00;91967.75;5091980;28;20503;-69
2022/09/18 00:23:36;;;;;;;9.25;3.00;;;;;;;16.78;100.00;91963.56;5091595;28;20689;-70
2022/09/18 00:26:04;;;;;;;17.05;6.68;;;;;;;16.89;100.00;91974.56;5091042;28;20093;-69
2022/09/18 00:28:31;;;;;;;9.43;3.60;;;;;;;16.82;100.00;91958.59;5091636;28;20048;-69
2022/09/18 00:31:04;;;;;;;14.35;3.70;;;;;;;16.88;100.00;91967.06;5091448;28;20043;-69
2022/09/18 00:33:31;;;;;;;8.32;3.45;;;;;;;16.92;100.00;91965.44;5091198;28;20044;-69
2022/09/18 00:36:00;;;;;;;10.30;4.03;;;;;;;16.93;100.00;91954.03;5091201;28;20102;-69
2022/09/18 00:38:29;;;;;;;7.63;3.58;;;;;;;16.63;100.00;91989.66;5090650;28;20499;-69
2022/09/18 00:40:55;;;;;;;4.38;2.35;;;;;;;16.52;100.00;91994.19;5091071;28;20040;-70
2022/09/18 00:43:25;;;;;;;5.57;1.70;;;;;;;16.38;100.00;92009.63;5090974;28;20755;-70
2022/09/18 00:45:55;;;;;;;4.63;1.95;;;;;;;15.88;100.00;92023.53;5090472;28;20552;-69
2022/09/18 00:48:27;;;;;;;4.25;2.00;;;;;;;15.36;100.00;92055.69;5090722;28;20555;-70
2022/09/18 00:50:54;;;;;;;3.25;1.98;;;;;;;15.31;100.00;92050.56;5091096;28;20090;-70
2022/09/18 00:53:21;;;;;;;3.88;1.70;;;;;;;15.15;100.00;92039.53;5090789;28;20043;-69
2022/09/18 00:55:49;;;;;;;3.25;1.88;;;;;;;15.09;100.00;92069.78;5090993;28;20437;-70
2022/09/18 00:58:16;;;;;;;5.38;1.90;;;;;;;14.86;100.00;92060.81;5090643;28;20487;-69
2022/09/18 01:00:43;;;;;;;5.90;2.45;;;;;;;14.89;100.00;92087.97;5090544;28;20124;-69
2022/09/18 01:03:09;;;;;;;4.95;2.00;;;;;;;14.74;100.00;92086.19;5090482;28;20051;-69
2022/09/18 01:05:58;;;;;;;5.80;2.15;;;;;;;14.49;100.00;92092.97;5090503;28;20044;-70
2022/09/18 01:08:36;;;;;;;3.65;1.90;;;;;;;14.39;100.00;92102.28;5090598;28;20054;-69
2022/09/18 01:11:27;;;;;;;2.75;1.70;;;;;;;14.04;100.00;92116.75;5090203;28;20044;-69
2022/09/18 01:14:05;;;;;;;2.33;1.25;;;;;;;13.48;100.00;92121.56;5090116;28;20089;-69
2022/09/18 01:16:37;;;;;;;2.50;1.38;;;;;;;13.21;100.00;92126.88;5090269;28;20044;-69
2022/09/18 01:19:16;;;;;;;2.92;1.30;;;;;;;13.03;100.00;92117.78;5090621;28;20048;-69
2022/09/18 01:21:47;;;;;;;2.03;1.30;;;;;;;12.66;100.00;92129.69;5089990;28;20052;-69
2022/09/18 01:24:45;;;;;;;2.28;1.60;;;;;;;12.68;100.00;92136.16;5090091;28;20047;-69
2022/09/18 01:27:25;;;;;;;2.28;1.50;;;;;;;12.53;100.00;92139.41;5090180;28;20040;-69
2022/09/18 01:29:59;;;;;;;3.42;1.35;;;;;;;12.44;100.00;92153.78;5090060;28;20040;-69
2022/09/18 01:32:30;;;;;;;2.35;1.40;;;;;;;11.65;100.00;92168.75;5090206;28;20040;-68
2022/09/18 01:35:01;;;;;;;2.03;1.33;;;;;;;11.41;100.00;92176.75;5090244;28;20488;-68
2022/09/18 01:37:34;;;;;;;2.75;1.17;;;;;;;11.16;100.00;92168.47;5089824;28;20499;-70
2022/09/18 01:40:10;;;;;;;2.97;1.10;;;;;;;10.87;100.00;92171.22;5090075;28;20044;-69
2022/09/18 01:42:39;;;;;;;1.83;1.05;;;;;;;10.65;100.00;92204.56;5089884;28;20495;-69
2022/09/18 01:45:11;;;;;;;1.92;0.82;;;;;;;10.80;100.00;92206.56;5089965;28;20450;-69
2022/09/18 01:47:45;;;;;;;2.35;0.90;;;;;;;10.54;100.00;92201.06;5090141;28;20047;-69
2022/09/18 01:50:14;;;;;;;2.53;1.00;;;;;;;10.70;100.00;92214.91;5089975;28;20048;-69
2022/09/18 01:52:46;;;;;;;3.58;0.80;;;;;;;10.47;100.00;92211.50;5089872;28;20109;-69
2022/09/18 01:55:18;;;;;;;1.30;0.73;;;;;;;10.01;100.00;92240.47;5089516;28;20085;-69
2022/09/18 01:57:53;;;;;;;1.52;0.63;;;;;;;9.82;100.00;92244.25;5089618;28;20048;-69
2022/09/18 02:00:21;;;;;;;0.90;0.50;;;;;;;10.12;100.00;92256.84;5089446;28;20052;-69
2022/09/18 02:02:53;;;;;;;1.17;0.60;;;;;;;9.78;100.00;92286.75;5089565;28;20051;-69
2022/09/18 02:05:26;;;;;;;1.20;0.65;;;;;;;10.12;100.00;92291.97;5089486;28;20048;-69
2022/09/18 02:08:02;;;;;;;0.93;0.52;;;;;;;10.14;100.00;92287.41;5089632;28;20089;-69
2022/09/18 02:10:32;;;;;;;1.77;0.60;;;;;;;10.14;100.00;92295.88;5089512;28;20043;-69
2022/09/18 02:13:02;;;;;;;2.05;0.85;;;;;;;10.14;100.00;92295.13;5089932;28;20548;-68
2022/09/18 02:15:36;;;;;;;0.95;0.50;;;;;;;9.63;100.00;92304.16;5123384;27;20130;-69
2022/09/18 02:18:08;;;;;;;1.70;0.80;;;;;;;9.77;100.00;92306.50;5131040;27;20090;-69
2022/09/18 02:20:36;;;;;;;1.00;0.60;;;;;;;9.71;100.00;92315.06;5116179;27;20142;-68
2022/09/18 02:23:06;;;;;;;1.63;0.70;;;;;;;9.52;100.00;92327.25;5130561;27;20073;-69
2022/09/18 02:25:36;;;;;;;3.20;0.50;;;;;;;9.36;100.00;92345.66;5130317;27;20095;-68
2022/09/18 02:28:05;;;;;;;1.20;0.70;;;;;;;9.39;100.00;92359.03;5130503;27;20051;-68
2022/09/18 02:30:34;;;;;;;1.20;0.60;;;;;;;9.23;100.00;92353.56;5130394;27;20043;-68
2022/09/18 02:33:01;;;;;;;2.78;1.02;;;;;;;9.14;100.00;92352.31;5102148;27;20115;-68
2022/09/18 02:35:36;;;;;;;1.00;0.70;;;;;;;9.01;100.00;92358.44;5130333;27;20402;-69
2022/09/18 02:38:12;;;;;;;1.67;0.90;;;;;;;8.91;100.00;92359.78;5130283;27;20047;-68
2022/09/18 02:40:47;;;;;;;1.42;0.73;;;;;;;8.94;100.00;92379.03;5130261;27;20438;-69
2022/09/18 02:43:29;;;;;;;1.90;1.00;;;;;;;9.24;100.00;92380.75;5130420;27;20043;-69
2022/09/18 02:46:05;;;;;;;1.05;0.60;;;;;;;9.16;100.00;92378.53;5129958;27;20092;-69
2022/09/18 02:48:48;;;;;;;1.38;0.70;;;;;;;9.09;100.00;92392.19;5130402;27;20043;-68
2022/09/18 02:51:27;;;;;;;1.52;0.90;;;;;;;8.79;100.00;92402.47;5130386;27;20043;-68
2022/09/18 02:54:00;;;;;;;1.25;0.70;;;;;;;8.77;100.00;92412.16;5130097;27;20047;-68
2022/09/18 02:56:35;;;;;;;1.10;0.80;;;;;;;8.71;100.00;92416.38;5129753;27;20542;-68
2022/09/18 02:59:08;;;;;;;1.45;0.60;;;;;;;8.77;100.00;92410.41;5130021;28;20051;-68
2022/09/18 03:01:41;;;;;;;2.78;1.08;;;;;;;8.95;100.00;92401.84;5130099;28;20139;-68
2022/09/18 03:04:12;;;;;;;1.60;0.80;;;;;;;9.00;100.00;92406.34;5129904;28;20486;-68
2022/09/18 03:06:39;;;;;;;1.30;0.90;;;;;;;9.00;100.00;92413.22;5129881;28;20043;-68
2022/09/18 03:09:06;;;;;;;1.45;0.85;;;;;;;9.00;100.00;92416.59;5130076;28;20095;-68
2022/09/18 03:11:33;;;;;;;1.58;0.60;;;;;;;8.94;100.00;92414.91;5130117;28;20043;-68
2022/09/18 03:13:59;;;;;;;1.40;0.60;;;;;;;9.18;100.00;92417.50;5130104;28;20125;-68
2022/09/18 03:16:26;;;;;;;0.85;0.57;;;;;;;9.15;100.00;92423.84;5129598;28;20088;-68
2022/09/18 03:18:54;;;;;;;0.93;0.55;;;;;;;8.66;100.00;92426.50;5128441;28;20103;-68
2022/09/18 03:21:21;;;;;;;0.90;0.50;;;;;;;8.63;100.00;92432.84;5117842;28;20039;-68
2022/09/18 03:23:48;;;;;;;1.25;0.60;;;;;;;8.62;100.00;92441.50;5129569;28;20092;-68
2022/09/18 03:26:15;;;;;;;1.80;0.80;;;;;;;8.51;100.00;92445.53;5129700;28;20528;-68
2022/09/18 03:28:43;;;;;;;1.15;0.57;;;;;;;8.47;100.00;92457.19;5129745;28;20103;-68
2022/09/18 03:31:09;;;;;;;1.38;0.77;;;;;;;8.40;100.00;92464.19;5129828;28;20043;-67
2022/09/18 03:33:36;;;;;;;0.98;0.50;;;;;;;8.30;100.00;92469.81;5129980;28;20039;-68
2022/09/18 03:36:05;;;;;;;1.58;0.60;;;;;;;8.17;100.00;92460.50;5129258;28;20043;-68
2022/09/18 03:38:32;;;;;;;2.28;0.50;;;;;;;8.26;100.00;92453.31;5132133;27;20039;-68
2022/09/18 03:40:59;;;;;;;1.35;0.60;;;;;;;8.06;100.00;92472.19;5133736;27;20043;-68
2022/09/18 03:43:26;;;;;;;1.10;0.60;;;;;;;7.82;100.00;92461.81;5133592;27;20043;-68
2022/09/18 03:45:53;;;;;;;1.58;0.65;;;;;;;7.73;100.00;92463.84;5120542;27;20048;-68
2022/09/18 03:48:20;;;;;;;1.50;0.60;;;;;;;7.80;100.00;92478.34;5118020;27;20099;-68
2022/09/18 03:50:47;;;;;;;2.15;0.70;;;;;;;7.78;100.00;92493.13;5122844;27;20434;-68
2022/09/18 03:53:16;;;;;;;1.00;0.70;;;;;;;7.82;100.00;92505.25;5104493;28;20113;-68
2022/09/18 03:55:42;;;;;;;1.60;0.60;;;;;;;7.82;100.00;92509.63;5121358;27;20367;-68
2022/09/18 03:58:09;;;;;;;1.65;0.73;;;;;;;7.91;100.00;92500.66;5092371;28;20109;-68
2022/09/18 04:00:36;;;;;;;1.35;0.52;;;;;;;8.01;100.00;92506.09;5120246;27;20117;-68
2022/09/18 04:03:02;;;;;;;0.93;0.52;;;;;;;8.06;100.00;92497.78;5101466;27;20638;-68
2022/09/18 04:05:29;;;;;;;0.95;0.47;;;;;;;8.08;100.00;92508.59;5127370;27;20056;-68
2022/09/18 04:07:57;;;;;;;1.95;0.60;;;;;;;8.09;100.00;92519.59;5093385;27;20457;-68
2022/09/18 04:10:26;;;;;;;0.95;0.60;;;;;;;8.04;100.00;92540.69;5103266;27;20052;-68
2022/09/18 04:12:52;;;;;;;0.90;0.50;;;;;;;8.08;100.00;92534.16;5109896;27;20069;-68
2022/09/18 04:15:19;;;;;;;1.33;0.80;;;;;;;8.04;100.00;92517.66;5129969;27;20415;-68
2022/09/18 04:17:46;;;;;;;1.02;0.60;;;;;;;7.93;100.00;92529.38;5096276;27;20492;-68
2022/09/18 04:20:13;;;;;;;3.00;0.80;;;;;;;7.77;100.00;92533.22;5119302;27;20052;-68
2022/09/18 04:22:40;;;;;;;1.13;0.70;;;;;;;7.92;100.00;92534.69;5100636;28;20397;-68
2022/09/18 04:25:07;;;;;;;1.00;0.60;;;;;;;7.72;100.00;92535.63;5125591;27;20092;-68
2022/09/18 04:27:35;;;;;;;1.30;0.70;;;;;;;7.73;100.00;92537.22;5112963;27;20495;-68
2022/09/18 04:30:02;;;;;;;1.20;0.73;;;;;;;7.78;100.00;92541.69;5121389;27;20047;-68
2022/09/18 04:32:29;;;;;;;1.30;0.68;;;;;;;7.68;100.00;92552.41;5101013;28;20101;-68
2022/09/18 04:34:56;;;;;;;1.15;0.65;;;;;;;7.68;100.00;92558.28;5126578;27;20119;-68
2022/09/18 04:37:22;;;;;;;1.05;0.55;;;;;;;7.60;100.00;92555.97;5103891;27;20047;-68
2022/09/18 04:39:49;;;;;;;1.50;0.70;;;;;;;7.65;100.00;92561.25;5120360;27;20058;-68
2022/09/18 04:42:16;;;;;;;1.10;0.60;;;;;;;7.75;100.00;92573.56;5130902;27;20039;-68
2022/09/18 04:44:44;;;;;;;2.20;0.82;;;;;;;8.02;100.00;92586.16;5132472;27;20124;-68
2022/09/18 04:47:11;;;;;;;1.30;0.80;;;;;;;8.10;100.00;92596.13;5132633;27;20046;-68
2022/09/18 04:49:38;;;;;;;1.02;0.60;;;;;;;8.28;100.00;92586.91;5132198;27;20043;-68
2022/09/18 04:52:04;;;;;;;1.27;0.77;;;;;;;8.41;100.00;92586.03;5132343;27;20047;-68
2022/09/18 04:54:31;;;;;;;1.10;0.60;;;;;;;8.21;100.00;92610.03;5132451;27;20047;-69
2022/09/18 04:56:58;;;;;;;1.30;0.70;;;;;;;8.26;100.00;92599.16;5119385;27;20079;-68
2022/09/18 04:59:25;;;;;;;1.25;0.70;;;;;;;8.36;100.00;92614.03;5092808;27;20043;-68
2022/09/18 05:01:53;;;;;;;1.45;0.93;;;;;;;8.16;100.00;92623.41;5090779;28;20450;-68
2022/09/18 05:04:19;;;;;;;1.88;1.05;;;;;;;7.96;100.00;92646.59;5092396;28;20047;-68
2022/09/18 05:06:46;;;;;;;1.52;1.10;;;;;;;8.02;100.00;92655.22;5101939;28;20184;-68
2022/09/18 05:09:13;;;;;;;1.90;1.30;;;;;;;8.09;100.00;92666.19;5115094;27;20047;-68
2022/09/18 05:11:40;;;;;;;1.70;1.10;;;;;;;8.13;100.00;92666.53;5131799;27;20536;-68
2022/09/18 05:14:07;;;;;;;2.00;1.50;;;;;;;7.94;100.00;92675.91;5113378;27;20040;-68
2022/09/18 05:16:34;;;;;;;1.77;1.20;;;;;;;7.99;100.00;92687.09;5094778;28;20039;-68
2022/09/18 05:19:02;;;;;;;2.67;1.80;;;;;;;8.12;100.00;92677.78;5124548;27;20050;-68
2022/09/18 05:21:29;;;;;;;12.27;9.60;;;;;;;8.05;100.00;92682.16;5120803;27;20043;-68
2022/09/18 05:23:56;;;;;;;6.60;5.68;;;;;;;8.23;100.00;92687.34;5131382;27;20058;-68
2022/09/18 05:26:23;;;;;;;44.95;25.02;;;;;;;8.19;100.00;92677.75;5131701;27;20047;-68
2022/09/18 05:28:50;;;;;;;4.55;3.25;;;;;;;8.28;100.00;92687.50;5131777;27;20462;-68
2022/09/18 05:31:17;;;;;;;2.70;1.88;;;;;;;8.23;100.00;92692.47;5123094;27;20043;-67
2022/09/18 05:33:44;;;;;;;6.55;4.05;;;;;;;8.18;100.00;92694.84;5131433;27;20058;-67
2022/09/18 05:36:12;;;;;;;4.68;2.85;;;;;;;8.27;100.00;92713.28;5131248;27;20120;-67
2022/09/18 05:38:38;;;;;;;6.68;4.75;;;;;;;8.34;100.00;92706.34;5090979;28;20052;-67
2022/09/18 05:41:05;;;;;;;2.75;1.60;;;;;;;8.29;100.00;92691.63;5131742;27;20047;-67
2022/09/18 05:43:32;;;;;;;2.78;1.75;;;;;;;8.29;100.00;92698.53;5131065;27;20047;-68
2022/09/18 05:46:01;;;;;;;2.70;1.92;;;;;;;8.34;100.00;92682.53;5131203;27;20043;-68
2022/09/18 05:48:28;;;;;;;4.25;2.83;;;;;;;8.34;100.00;92685.88;5131102;27;20095;-68
2022/09/18 05:50:56;;;;;;;3.50;2.10;;;;;;;8.50;100.00;92696.59;5130876;27;20554;-68
2022/09/18 05:53:24;;;;;;;2.83;1.98;;;;;;;8.42;100.00;92706.09;5131265;27;20043;-68
2022/09/18 05:55:51;;;;;;;2.65;1.90;;;;;;;8.46;100.00;92696.22;5131164;27;20047;-68
2022/09/18 05:58:19;;;;;;;2.22;1.25;;;;;;;8.43;100.00;92687.19;5101465;27;20040;-68
2022/09/18 06:00:47;;;;;;;2.60;1.60;;;;;;;8.88;100.00;92702.63;5130375;27;20519;-68
2022/09/18 06:03:15;;;;;;;1.60;1.10;;;;;;;8.61;100.00;92703.63;5130977;27;20501;-68
2022/09/18 06:05:42;;;;;;;1.90;1.23;;;;;;;8.58;100.00;92729.66;5124960;27;20047;-68
2022/09/18 06:08:11;;;;;;;1.77;1.10;;;;;;;8.61;100.00;92733.56;5116973;27;20116;-68
2022/09/18 06:10:40;;;;;;;2.10;1.42;;;;;;;8.83;100.00;92733.97;5130622;27;20088;-68
2022/09/18 06:13:09;;;;;;;2.03;1.42;;;;;;;8.85;100.00;92742.25;5130603;27;20047;-68
2022/09/18 06:15:36;;;;;;;2.10;1.30;;;;;;;8.87;100.00;92744.56;5130900;27;20429;-68
2022/09/18 06:18:04;;;;;;;2.45;1.40;;;;;;;9.22;100.00;92733.81;5117805;27;20112;-68
2022/09/18 06:20:31;;;;;;;1.90;1.35;;;;;;;9.47;100.00;92744.00;5116086;27;20284;-68
2022/09/18 06:23:00;;;;;;;2.45;1.58;;;;;;;9.49;100.00;92752.25;5130687;27;20043;-68
2022/09/18 06:25:27;;;;;;;1.92;1.30;;;;;;;9.44;100.00;92754.69;5129199;27;20043;-68
2022/09/18 06:27:58;;;;;;;2.00;1.30;;;;;;;9.59;100.00;92758.69;5103299;27;20055;-68
2022/09/18 06:30:26;;;;;;;2.20;1.27;;;;;;;8.91;100.00;92769.56;5123612;27;20071;-68
2022/09/18 06:32:53;;;;;;;2.13;1.55;;;;;;;9.02;100.00;92767.31;5130035;27;20047;-68
2022/09/18 06:35:19;;;;;;;2.20;1.50;;;;;;;8.98;100.00;92763.59;5130507;27;20050;-68
2022/09/18 06:37:46;;;;;;;1.77;1.20;;;;;;;9.18;100.00;92768.56;5130399;27;20047;-69
2022/09/18 06:40:13;;;;;;;2.08;1.25;;;;;;;9.31;100.00;92783.78;5130612;27;20383;-68
2022/09/18 06:42:40;;;;;;;2.55;1.10;;;;;;;9.11;100.00;92785.78;5130092;27;20047;-69
2022/09/18 06:45:09;;;;;;;1.50;0.90;;;;;;;9.38;100.00;92780.38;5130294;27;20047;-68
2022/09/18 06:47:36;;;;;;;2.55;1.02;;;;;;;9.28;100.00;92793.69;5104478;28;20135;-68
2022/09/18 06:50:04;;;;;;;1.80;1.00;;;;;;;9.35;100.00;92794.41;5090276;28;20468;-68
2022/09/18 06:52:31;;;;;;;1.75;1.08;;;;;;;9.11;100.00;92796.03;5088642;28;20044;-68
2022/09/18 06:54:58;;;;;;;2.45;1.08;;;;;;;8.77;100.00;92758.66;5088609;28;20588;-68
2022/09/18 06:57:25;;;;;;;1.98;1.25;;;;;;;8.84;100.00;92793.66;5088648;28;20047;-68
2022/09/18 06:59:51;;;;;;;1.70;1.00;;;;;;;8.89;100.00;92801.50;5088718;28;20434;-69
2022/09/18 07:02:20;;;;;;;2.10;0.85;;;;;;;9.01;100.00;92804.97;5088802;28;20052;-68
2022/09/18 07:04:46;;;;;;;2.20;1.10;;;;;;;9.01;100.00;92811.84;5088110;28;20044;-69
2022/09/18 07:07:13;;;;;;;2.55;1.02;;;;;;;9.04;100.00;92794.31;5088741;28;20143;-69
2022/09/18 07:09:40;;;;;;;2.63;1.40;;;;;;;8.90;100.00;92808.19;5088488;28;20104;-69
2022/09/18 07:12:07;;;;;;;2.30;1.20;;;;;;;9.04;100.00;92816.56;5088581;28;20036;-68
2022/09/18 07:14:33;;;;;;;2.38;1.33;;;;;;;9.03;100.00;92823.47;5118234;27;20498;-68
2022/09/18 07:17:00;;;;;;;2.30;0.93;;;;;;;8.78;100.00;92824.25;5131159;27;20072;-69
2022/09/18 07:19:28;;;;;;;2.28;1.38;;;;;;;8.81;100.00;92828.16;5127572;27;20052;-69
2022/09/18 07:21:55;;;;;;;2.17;1.00;;;;;;;9.00;100.00;92830.78;5094022;28;20097;-69
2022/09/18 07:24:22;;;;;;;1.50;0.80;;;;;;;9.02;100.00;92844.19;5092492;28;20442;-68
2022/09/18 07:26:48;;;;;;;2.70;1.40;;;;;;;8.88;100.00;92844.25;5092345;28;20047;-68
2022/09/18 07:29:15;;;;;;;1.40;1.00;;;;;;;8.88;100.00;92848.63;5094642;28;20048;-68
2022/09/18 07:31:42;;;;;;;2.58;1.35;;;;;;;9.16;100.00;92843.06;5105997;28;20051;-68
2022/09/18 07:34:09;;;;;;;2.47;1.17;;;;;;;9.29;100.00;92846.50;5092331;27;20044;-69
2022/09/18 07:36:37;;;;;;;3.25;2.08;;;;;;;9.35;100.00;92850.78;5114210;27;20494;-69
2022/09/18 07:39:04;;;;;;;2.72;1.23;;;;;;;9.19;100.00;92852.91;5132876;27;20043;-68
2022/09/18 07:41:31;;;;;;;1.42;0.85;;;;;;;9.26;100.00;92849.50;5133658;27;20047;-68
2022/09/18 07:43:57;;;;;;;2.13;1.20;;;;;;;9.41;100.00;92852.53;5133331;27;20440;-68
2022/09/18 07:46:24;;;;;;;1.60;0.98;;;;;;;9.33;100.00;92848.47;5133286;27;21501;-69
2022/09/18 07:48:51;;;;;;;5.80;2.65;;;;;;;9.62;100.00;92850.56;5133381;27;20506;-69
2022/09/18 07:51:18;;;;;;;2.50;1.63;;;;;;;9.66;100.00;92854.28;5133311;27;20088;-69
2022/09/18 07:53:47;;;;;;;3.67;1.17;;;;;;;9.77;100.00;92852.78;5133430;27;20100;-68
2022/09/18 07:56:14;;;;;;;2.55;1.02;;;;;;;9.93;100.00;92858.34;5114402;27;20441;-69
2022/09/18 07:58:41;;;;;;;2.28;1.02;;;;;;;9.97;100.00;92862.06;5123920;27;20055;-69
2022/09/18 08:01:08;;;;;;;2.05;0.80;;;;;;;9.70;100.00;92875.13;5132913;27;20043;-69
2022/09/18 08:03:36;;;;;;;2.47;0.95;;;;;;;9.82;100.00;92870.88;5133252;27;20043;-69
2022/09/18 08:06:03;;;;;;;1.95;1.35;;;;;;;9.80;100.00;92877.22;5133159;27;20746;-69
2022/09/18 08:08:29;;;;;;;2.17;0.85;;;;;;;9.65;100.00;92882.69;5119940;27;20047;-69
2022/09/18 08:10:58;;;;;;;1.77;0.93;;;;;;;9.61;100.00;92883.13;5114150;27;20051;-69
2022/09/18 08:13:24;;;;;;;1.48;0.90;;;;;;;9.95;100.00;92874.31;5120341;27;20107;-69
2022/09/18 08:15:51;;;;;;;1.75;1.10;;;;;;;10.19;100.00;92872.69;5116493;27;20180;-69
2022/09/18 08:18:21;;;;;;;2.45;0.88;;;;;;;10.36;100.00;92885.69;5115152;27;20043;-69
2022/09/18 08:20:48;;;;;;;1.42;0.80;;;;;;;10.17;100.00;92884.91;5118515;27;20084;-69
2022/09/18 08:23:14;;;;;;;1.35;0.80;;;;;;;10.17;100.00;92892.63;5132515;27;20043;-68
2022/09/18 08:25:41;;;;;;;1.50;0.80;;;;;;;10.35;100.00;92891.03;5132612;27;20043;-69
2022/09/18 08:28:10;;;;;;;2.28;0.90;;;;;;;10.69;100.00;92901.72;5132914;27;20055;-69
2022/09/18 08:30:37;;;;;;;1.27;0.77;;;;;;;11.01;100.00;92898.16;5123212;27;20563;-68
2022/09/18 08:33:06;;;;;;;1.35;0.60;;;;;;;11.19;100.00;92902.41;5122318;27;20092;-68
2022/09/18 08:35:33;;;;;;;1.38;0.50;;;;;;;11.22;100.00;92913.03;5115221;27;20047;-69
2022/09/18 08:38:00;;;;;;;1.35;0.70;;;;;;;11.29;99.81;92905.22;5115288;27;20039;-69
2022/09/18 08:40:56;;;;;;;1.13;0.70;;;;;;;11.32;100.00;92909.16;5108752;28;20052;-69
2022/09/18 08:43:43;;;;;;;2.15;0.70;;;;;;;10.95;100.00;92910.06;5117211;27;20795;-69
2022/09/18 08:46:15;;;;;;;2.10;0.80;;;;;;;10.61;98.86;92920.81;5132495;27;20511;-69
2022/09/18 08:48:49;;;;;;;1.58;0.98;;;;;;;10.78;100.00;92900.41;5132192;27;20518;-68
2022/09/18 08:51:23;;;;;;;1.13;0.70;;;;;;;10.71;98.47;92911.78;5132173;27;20039;-69
2022/09/18 08:53:54;;;;;;;1.27;0.70;;;;;;;10.78;100.00;92915.81;5118214;27;20450;-69
2022/09/18 08:56:24;;;;;;;0.98;0.65;;;;;;;10.67;100.00;92883.16;5124144;27;20453;-68
2022/09/18 08:58:56;;;;;;;1.70;0.80;;;;;;;10.83;100.00;92913.38;5132039;27;20092;-69
2022/09/18 09:01:31;;;;;;;1.17;0.77;;;;;;;10.53;100.00;92928.78;5131783;27;20055;-68
2022/09/18 09:04:04;;;;;;;1.63;0.87;;;;;;;10.31;98.27;92934.34;5115745;27;20146;-68
2022/09/18 09:06:53;;;;;;;2.90;0.90;;;;;;;10.71;100.00;92922.06;5114601;27;20051;-68
2022/09/18 09:09:33;;;;;;;1.55;0.60;;;;;;;10.87;100.00;92924.00;5104525;27;20043;-69
2022/09/18 09:12:08;;;;;;;1.08;0.60;;;;;;;10.83;100.00;92940.84;5131751;27;20543;-69
2022/09/18 09:14:53;;;;;;;1.80;0.90;;;;;;;10.86;100.00;92937.06;5124009;27;20043;-69
2022/09/18 09:17:37;;;;;;;1.45;0.70;;;;;;;10.56;100.00;92946.34;5119994;27;20043;-69
2022/09/18 09:20:17;;;;;;;1.40;0.90;;;;;;;10.33;100.00;92952.09;5117794;27;20392;-69
2022/09/18 09:22:56;;;;;;;2.75;0.98;;;;;;;10.54;100.00;92943.19;5130616;27;20542;-68
2022/09/18 09:25:30;;;;;;;1.33;0.75;;;;;;;10.62;100.00;92952.38;5126581;27;20528;-68
2022/09/18 09:28:00;;;;;;;1.85;1.00;;;;;;;10.57;99.55;92960.75;5131755;27;20047;-69
2022/09/18 09:30:34;;;;;;;1.20;0.80;;;;;;;10.48;100.00;92944.84;5124284;27;20089;-68
2022/09/18 09:33:16;;;;;;;2.08;0.77;;;;;;;10.79;100.00;92963.63;5112293;27;20047;-69
2022/09/18 09:35:46;;;;;;;1.60;0.90;;;;;;;11.19;100.00;92961.53;5121449;27;20051;-69
2022/09/18 09:38:33;;;;;;;2.50;0.70;;;;;;;11.29;100.00;92958.47;5126459;27;20047;-69
2022/09/18 09:41:12;;;;;;;1.45;0.90;;;;;;;11.11;100.00;92956.72;5107845;27;20043;-68
2022/09/18 09:43:44;;;;;;;1.90;1.00;;;;;;;11.28;98.63;92955.09;5100818;27;20048;-69
2022/09/18 09:46:21;;;;;;;2.33;1.30;;;;;;;11.63;99.25;92969.81;5097803;28;20491;-68
2022/09/18 09:48:56;;;;;;;2.03;1.42;;;;;;;11.64;94.21;92978.31;5110770;27;20047;-69
2022/09/18 09:51:30;;;;;;;2.25;1.60;;;;;;;11.82;96.33;92972.31;5130935;27;20563;-68
2022/09/18 09:54:00;;;;;;;3.65;2.28;;;;;;;11.69;94.17;92975.06;5131517;27;20051;-68
2022/09/18 09:56:32;;;;;;;2.97;1.60;;;;;;;10.76;93.79;92982.06;5129779;27;20234;-68
2022/09/18 09:59:08;;;;;;;4.63;3.92;;;;;;;10.98;95.70;92984.19;5117488;27;20044;-68
2022/09/18 10:01:41;;;;;;;2.67;2.38;;;;;;;11.01;98.09;92982.97;5106237;28;20108;-68
2022/09/18 10:04:19;;;;;;;3.28;2.08;;;;;;;10.95;97.10;92982.81;5093619;28;20040;-68
2022/09/18 10:06:54;;;;;;;2.50;1.80;;;;;;;11.32;94.62;92976.81;5098078;28;20082;-70
2022/09/18 10:09:46;;;;;;;3.27;2.03;;;;;;;11.76;95.12;92986.06;5089989;28;20083;-70
2022/09/18 10:12:25;;;;;;;4.03;3.15;;;;;;;11.75;93.04;92981.91;5090476;28;20056;-70
2022/09/18 10:15:03;;;;;;;3.28;2.08;;;;;;;11.74;93.39;92991.44;5089966;27;20059;-69
2022/09/18 10:17:36;;;;;;;4.05;2.33;;;;;;;11.02;93.80;92981.94;5117247;27;20143;-69
2022/09/18 10:20:06;;;;;;;3.13;2.17;;;;;;;10.76;92.35;93006.97;5119193;27;20051;-69
2022/09/18 10:22:36;;;;;;;2.70;2.13;;;;;;;10.77;94.45;93008.53;5128291;27;20054;-69
2022/09/18 10:25:08;;;;;;;3.38;2.58;;;;;;;10.37;98.29;93007.94;5130576;27;20083;-69
2022/09/18 10:27:36;;;;;;;3.38;2.78;;;;;;;10.48;97.17;93006.47;5130312;27;20039;-69
2022/09/18 10:30:11;;;;;;;3.22;2.80;;;;;;;10.60;99.54;93009.09;5126899;27;20801;-69
2022/09/18 10:32:41;;;;;;;3.92;2.60;;;;;;;10.79;98.41;93015.03;5127091;27;20051;-69
2022/09/18 10:35:43;;;;;;;4.47;2.95;;;;;;;10.83;98.63;93015.38;5130286;27;20130;-69
2022/09/18 10:38:31;;;;;;;4.53;3.00;;;;;;;11.21;97.50;93023.84;5086709;27;20047;-69
2022/09/18 10:41:11;;;;;;;2.88;2.15;;;;;;;11.29;94.42;93023.50;5130285;27;20047;-69
2022/09/18 10:43:54;;;;;;;4.40;2.75;;;;;;;11.52;96.93;93013.53;5130071;27;20043;-69
2022/09/18 10:46:27;;;;;;;5.25;3.03;;;;;;;11.60;92.07;93024.28;5129967;27;20050;-69
2022/09/18 10:48:58;;;;;;;3.70;2.50;;;;;;;11.50;91.15;93024.81;5130387;27;21048;-69
2022/09/18 10:51:27;;;;;;;3.75;3.22;;;;;;;11.61;93.12;93035.34;5129847;27;20043;-69
2022/09/18 10:54:03;;;;;;;3.67;3.30;;;;;;;11.31;91.82;93036.94;5130344;27;20092;-69
2022/09/18 10:56:30;;;;;;;3.78;3.35;;;;;;;11.13;95.53;93037.75;5130532;27;20131;-69
2022/09/18 10:59:12;;;;;;;5.53;4.07;;;;;;;11.09;96.24;93036.63;5129894;27;20495;-69
2022/09/18 11:01:39;;;;;;;6.15;4.75;;;;;;;11.40;98.97;93016.06;5110422;27;20130;-69
2022/09/18 11:04:17;;;;;;;5.13;3.80;;;;;;;11.63;93.67;93023.06;5115288;28;20101;-69
2022/09/18 11:06:46;;;;;;;6.63;3.95;;;;;;;11.70;96.47;93017.78;5129060;28;20130;-69
2022/09/18 11:09:19;;;;;;;4.75;4.10;;;;;;;11.78;92.39;93030.34;5129654;28;20107;-69
2022/09/18 11:11:50;;;;;;;4.38;3.97;;;;;;;11.62;91.72;93034.38;5129450;28;20051;-69
2022/09/18 11:14:20;;;;;;;5.18;4.68;;;;;;;11.70;91.25;93035.81;5129886;28;20051;-69
2022/09/18 11:16:50;;;;;;;5.28;4.78;;;;;;;10.67;91.40;93016.75;5123500;28;20491;-69
2022/09/18 11:19:26;;;;;;;5.07;4.50;;;;;;;10.87;95.73;93029.38;5117101;28;20494;-68
2022/09/18 11:21:54;;;;;;;;;;;;;;;11.07;95.00;93041.22;5122434;28;20135;-69
2022/09/18 11:24:24;;;;;;;5.75;4.97;;;;;;;11.25;98.42;93024.19;5124954;28;19923;-69
2022/09/18 11:26:52;;;;;;;6.85;4.90;;;;;;;11.38;95.16;93031.69;5120400;28;20043;-69
2022/09/18 11:29:24;;;;;;;4.05;3.65;;;;;;;11.42;93.15;93003.75;5129772;28;20039;-69
2022/09/18 11:31:55;;;;;;;4.90;4.40;;;;;;;11.87;95.75;93026.47;5121083;28;20043;-69
2022/09/18 11:34:30;;;;;;;4.93;4.43;;;;;;;12.14;94.59;93022.72;5114836;28;20487;-69
2022/09/18 11:37:01;;;;;;;4.55;4.07;;;;;;;12.41;92.04;93033.31;5129387;28;20088;-69
2022/09/18 11:39:34;;;;;;;4.80;4.10;;;;;;;12.55;91.23;93035.69;5129262;28;20555;-69
2022/09/18 11:42:02;;;;;;;5.18;4.05;;;;;;;12.38;93.00;93038.94;5129857;28;20419;-69
2022/09/18 11:44:31;;;;;;;4.32;3.92;;;;;;;12.67;94.35;93036.44;5129370;28;20135;-69
2022/09/18 11:47:19;;;;;;;4.18;3.30;;;;;;;12.58;89.69;93042.94;5129725;28;20107;-69